createdAt,value
2019-03-29T00:01:40.961Z,14.68
2019-03-29T00:04:09.397Z,13.70
2019-03-29T00:06:37.829Z,13.75
2019-03-29T00:09:07.604Z,13.88
2019-03-29T00:11:36.533Z,12.17
2019-03-29T00:14:04.941Z,14.93
2019-03-29T00:16:33.585Z,14.07
2019-03-29T00:19:02.339Z,18.50
2019-03-29T00:21:30.805Z,14.47
2019-03-29T00:24:06.596Z,14.73
2019-03-29T00:26:29.411Z,14.45
2019-03-29T00:28:57.840Z,14.63
2019-03-29T00:31:26.282Z,15.00
2019-03-29T00:33:54.718Z,13.68
2019-03-29T00:36:23.149Z,13.95
2019-03-29T00:38:51.605Z,13.00
2019-03-29T00:41:20.049Z,14.60
2019-03-29T00:43:48.500Z,15.90
2019-03-29T00:46:16.933Z,14.13
2019-03-29T00:48:45.365Z,13.68
2019-03-29T00:51:13.824Z,15.05
2019-03-29T00:53:42.261Z,16.57
2019-03-29T00:56:10.722Z,14.13
2019-03-29T00:58:39.136Z,14.85
2019-03-29T01:01:07.604Z,13.05
2019-03-29T01:03:36.962Z,13.90
2019-03-29T01:06:05.604Z,13.93
2019-03-29T01:08:34.043Z,13.03
2019-03-29T01:11:02.545Z,16.60
2019-03-29T01:13:30.986Z,15.93
2019-03-29T01:15:59.412Z,14.55
2019-03-29T01:18:27.851Z,15.05
2019-03-29T01:20:56.272Z,15.85
2019-03-29T01:23:24.732Z,15.60
2019-03-29T01:25:53.208Z,15.93
2019-03-29T01:28:21.700Z,17.55
2019-03-29T01:30:50.338Z,15.43
2019-03-29T01:33:18.773Z,15.18
2019-03-29T01:35:47.218Z,20.30
2019-03-29T01:38:21.810Z,13.53
2019-03-29T01:40:45.803Z,13.05
2019-03-29T01:43:14.237Z,15.45
2019-03-29T01:45:42.994Z,13.85
2019-03-29T01:48:11.429Z,16.15
2019-03-29T01:50:39.872Z,13.32
2019-03-29T01:53:08.312Z,14.65
2019-03-29T01:55:36.741Z,13.50
2019-03-29T01:58:05.180Z,15.43
2019-03-29T02:00:36.101Z,14.53
2019-03-29T02:03:04.805Z,15.38
2019-03-29T02:05:33.229Z,13.67
2019-03-29T02:08:02.000Z,12.70
2019-03-29T02:10:30.494Z,14.13
2019-03-29T02:12:59.214Z,14.30
2019-03-29T02:15:28.240Z,15.75
2019-03-29T02:17:57.042Z,15.70
2019-03-29T02:20:25.472Z,14.18
2019-03-29T02:22:53.907Z,12.67
2019-03-29T02:25:22.345Z,15.63
2019-03-29T02:27:50.760Z,15.28
2019-03-29T02:30:19.269Z,15.35
2019-03-29T02:32:47.743Z,13.35
2019-03-29T02:35:16.249Z,13.95
2019-03-29T02:37:44.745Z,14.50
2019-03-29T02:40:13.338Z,14.05
2019-03-29T02:42:42.913Z,17.67
2019-03-29T02:45:12.383Z,14.90
2019-03-29T02:47:40.792Z,15.20
2019-03-29T02:50:09.481Z,13.95
2019-03-29T02:52:37.991Z,14.83
2019-03-29T02:55:07.533Z,21.02
2019-03-29T02:57:36.027Z,16.80
2019-03-29T03:00:07.223Z,18.10
2019-03-29T03:02:35.760Z,18.32
2019-03-29T03:05:05.313Z,15.90
2019-03-29T03:07:34.010Z,16.62
2019-03-29T03:10:02.461Z,17.30
2019-03-29T03:12:30.879Z,20.43
2019-03-29T03:14:59.312Z,19.55
2019-03-29T03:17:27.756Z,21.12
2019-03-29T03:19:56.193Z,18.48
2019-03-29T03:22:24.656Z,20.62
2019-03-29T03:24:53.162Z,20.63
2019-03-29T03:27:21.599Z,18.42
2019-03-29T03:29:50.120Z,19.15
2019-03-29T03:32:18.559Z,22.62
2019-03-29T03:34:47.289Z,23.67
2019-03-29T03:37:15.720Z,20.12
2019-03-29T03:39:44.162Z,25.02
2019-03-29T03:42:12.589Z,24.00
2019-03-29T03:44:41.031Z,28.55
2019-03-29T03:47:09.457Z,25.05
2019-03-29T03:49:37.913Z,25.48
2019-03-29T03:52:06.606Z,28.67
2019-03-29T03:54:35.074Z,30.27
2019-03-29T03:57:05.397Z,30.40
2019-03-29T03:59:34.401Z,34.15
2019-03-29T04:02:02.827Z,33.23
2019-03-29T04:04:31.346Z,34.67
2019-03-29T04:06:59.782Z,30.62
2019-03-29T04:09:28.242Z,30.05
2019-03-29T04:11:56.691Z,32.23
2019-03-29T04:14:25.174Z,30.85
2019-03-29T04:16:53.615Z,27.37
2019-03-29T04:19:22.032Z,32.45
2019-03-29T04:21:50.494Z,33.40
2019-03-29T04:24:18.915Z,30.12
2019-03-29T04:26:47.354Z,32.27
2019-03-29T04:29:15.773Z,33.20
2019-03-29T04:31:44.230Z,29.85
2019-03-29T04:34:12.669Z,28.27
2019-03-29T04:36:41.117Z,27.60
2019-03-29T04:39:09.551Z,29.73
2019-03-29T04:41:38.061Z,32.60
2019-03-29T04:44:06.480Z,29.55
2019-03-29T04:46:34.930Z,30.27
2019-03-29T04:49:03.361Z,29.25
2019-03-29T04:51:31.853Z,32.58
2019-03-29T04:54:00.280Z,30.95
2019-03-29T04:56:28.725Z,31.05
2019-03-29T04:58:57.152Z,29.67
2019-03-29T05:01:25.630Z,29.00
2019-03-29T05:03:54.083Z,28.65
2019-03-29T05:06:22.526Z,27.22
2019-03-29T05:08:50.957Z,27.70
2019-03-29T05:11:19.383Z,27.63
2019-03-29T05:13:47.813Z,29.02
2019-03-29T05:16:16.277Z,21.95
2019-03-29T05:18:44.723Z,20.72
2019-03-29T05:21:13.153Z,22.63
2019-03-29T05:23:41.603Z,21.87
2019-03-29T05:26:10.100Z,22.98
2019-03-29T05:28:38.546Z,23.22
2019-03-29T05:31:06.973Z,22.40
2019-03-29T05:33:35.422Z,22.52
2019-03-29T05:36:04.031Z,22.37
2019-03-29T05:38:32.504Z,21.70
2019-03-29T05:41:01.630Z,20.95
2019-03-29T05:43:30.068Z,20.72
2019-03-29T05:45:58.508Z,21.12
2019-03-29T05:48:26.961Z,22.17
2019-03-29T05:50:55.401Z,20.30
2019-03-29T05:53:23.894Z,20.80
2019-03-29T05:55:52.310Z,20.15
2019-03-29T05:58:20.758Z,19.70
2019-03-29T06:00:49.486Z,20.30
2019-03-29T06:03:17.945Z,21.33
2019-03-29T06:05:46.390Z,19.43
2019-03-29T06:08:15.020Z,21.45
2019-03-29T06:10:49.384Z,19.30
2019-03-29T06:13:14.020Z,19.95
2019-03-29T06:15:43.030Z,18.77
2019-03-29T06:18:11.505Z,19.77
2019-03-29T06:20:39.944Z,20.00
2019-03-29T06:23:08.378Z,20.70
2019-03-29T06:25:36.803Z,20.02
2019-03-29T06:28:06.212Z,21.48
2019-03-29T06:30:34.806Z,21.62
2019-03-29T06:33:03.235Z,21.70
2019-03-29T06:35:33.967Z,21.30
2019-03-29T06:38:04.164Z,22.55
2019-03-29T06:40:32.602Z,23.98
2019-03-29T06:43:01.032Z,23.80
2019-03-29T06:45:29.480Z,23.80
2019-03-29T06:47:57.980Z,23.65
2019-03-29T06:50:26.440Z,24.00
2019-03-29T06:52:54.866Z,25.23
2019-03-29T06:55:23.619Z,23.40
2019-03-29T06:57:59.178Z,24.30
2019-03-29T07:00:27.628Z,24.25
2019-03-29T07:02:56.062Z,24.30
2019-03-29T07:05:24.497Z,23.80
2019-03-29T07:07:52.961Z,24.05
2019-03-29T07:10:21.454Z,25.80
2019-03-29T07:12:49.889Z,24.20
2019-03-29T07:15:18.596Z,25.27
2019-03-29T07:17:47.051Z,24.20
2019-03-29T07:20:15.506Z,23.42
2019-03-29T07:22:44.103Z,25.35
2019-03-29T07:25:12.700Z,25.30
2019-03-29T07:27:45.800Z,25.48
2019-03-29T07:30:11.849Z,25.80
2019-03-29T07:32:40.269Z,26.48
2019-03-29T07:35:09.510Z,27.57
2019-03-29T07:37:38.229Z,24.67
2019-03-29T07:40:07.222Z,25.60
2019-03-29T07:42:35.716Z,27.03
2019-03-29T07:45:05.808Z,26.80
2019-03-29T07:47:34.239Z,26.85
2019-03-29T07:50:02.685Z,27.20
2019-03-29T07:52:31.118Z,24.67
2019-03-29T07:54:59.573Z,24.02
2019-03-29T07:57:28.072Z,24.80
2019-03-29T07:59:56.669Z,23.87
2019-03-29T08:02:25.109Z,25.60
2019-03-29T08:04:53.551Z,23.57
2019-03-29T08:07:27.489Z,24.40
2019-03-29T08:09:52.163Z,24.95
2019-03-29T08:12:22.076Z,24.07
2019-03-29T08:14:50.709Z,23.85
2019-03-29T08:17:19.572Z,23.38
2019-03-29T08:20:05.336Z,22.52
2019-03-29T08:22:18.157Z,24.57
2019-03-29T08:24:46.609Z,24.12
2019-03-29T08:27:15.117Z,22.45
2019-03-29T08:29:43.571Z,25.70
2019-03-29T08:32:12.005Z,23.05
2019-03-29T08:34:40.453Z,23.57
2019-03-29T08:37:08.889Z,24.15
2019-03-29T08:39:37.614Z,24.35
2019-03-29T08:42:06.102Z,23.75
2019-03-29T08:44:34.609Z,24.55
2019-03-29T08:47:03.055Z,24.12
2019-03-29T08:49:31.501Z,25.95
2019-03-29T08:51:59.946Z,24.02
2019-03-29T08:54:28.370Z,23.80
2019-03-29T08:56:57.082Z,23.30
2019-03-29T08:59:25.507Z,23.00
2019-03-29T09:01:53.946Z,24.20
2019-03-29T09:04:23.433Z,22.60
2019-03-29T09:06:53.726Z,22.70
2019-03-29T09:09:22.045Z,22.25
2019-03-29T09:11:50.547Z,22.67
2019-03-29T09:14:19.092Z,24.10
2019-03-29T09:16:47.560Z,23.47
2019-03-29T09:19:15.990Z,22.58
2019-03-29T09:21:44.464Z,23.43
2019-03-29T09:24:21.844Z,23.32
2019-03-29T09:26:43.095Z,23.27
2019-03-29T09:29:11.593Z,25.00
2019-03-29T09:31:40.033Z,24.05
2019-03-29T09:34:08.473Z,22.60
2019-03-29T09:36:36.936Z,24.10
2019-03-29T09:39:06.944Z,23.87
2019-03-29T09:41:35.405Z,23.10
2019-03-29T09:44:03.857Z,24.45
2019-03-29T09:46:32.369Z,24.60
2019-03-29T09:49:00.829Z,24.02
2019-03-29T09:51:29.337Z,25.40
2019-03-29T09:53:58.062Z,25.70
2019-03-29T09:56:37.907Z,26.90
2019-03-29T09:58:56.751Z,26.70
2019-03-29T10:01:26.139Z,28.20
2019-03-29T10:03:54.630Z,27.50
2019-03-29T10:06:23.107Z,27.80
2019-03-29T10:08:53.341Z,27.67
2019-03-29T10:11:22.198Z,30.35
2019-03-29T10:13:52.643Z,30.10
2019-03-29T10:16:21.104Z,30.00
2019-03-29T10:18:49.609Z,29.55
2019-03-29T10:21:18.076Z,29.82
2019-03-29T10:23:46.558Z,32.00
2019-03-29T10:26:14.992Z,31.87
2019-03-29T10:28:43.456Z,32.33
2019-03-29T10:31:11.889Z,32.38
2019-03-29T10:33:40.416Z,32.20
2019-03-29T10:36:08.854Z,31.42
2019-03-29T10:38:37.308Z,31.33
2019-03-29T10:41:05.744Z,33.70
2019-03-29T10:43:34.550Z,32.13
2019-03-29T10:46:03.000Z,34.00
2019-03-29T10:48:31.818Z,33.65
2019-03-29T10:51:00.261Z,32.90
2019-03-29T10:53:29.052Z,36.77
2019-03-29T10:55:57.737Z,35.73
2019-03-29T10:58:26.249Z,34.00
2019-03-29T11:00:54.686Z,32.40
2019-03-29T11:03:23.201Z,34.33
2019-03-29T11:05:51.642Z,33.08
2019-03-29T11:08:21.683Z,32.63
2019-03-29T11:10:50.516Z,34.60
2019-03-29T11:13:18.990Z,34.00
2019-03-29T11:15:47.480Z,34.70
2019-03-29T11:18:16.295Z,32.67
2019-03-29T11:20:44.737Z,31.33
2019-03-29T11:23:13.257Z,34.35
2019-03-29T11:25:41.715Z,36.38
2019-03-29T11:28:10.178Z,37.17
2019-03-29T11:30:42.577Z,36.85
2019-03-29T11:33:08.927Z,36.17
2019-03-29T11:35:37.462Z,36.13
2019-03-29T11:38:05.886Z,35.73
2019-03-29T11:40:34.339Z,36.00
2019-03-29T11:43:02.791Z,35.95
2019-03-29T11:45:31.625Z,37.45
2019-03-29T11:48:08.298Z,36.35
2019-03-29T11:50:30.285Z,39.90
2019-03-29T11:52:59.773Z,36.53
2019-03-29T11:55:28.270Z,39.18
2019-03-29T11:57:56.705Z,38.60
2019-03-29T12:00:35.743Z,37.70
2019-03-29T12:03:08.480Z,38.67
2019-03-29T12:05:36.440Z,38.77
2019-03-29T12:08:05.515Z,38.40
2019-03-29T12:10:34.148Z,38.60
2019-03-29T12:13:02.648Z,37.40
2019-03-29T12:15:31.204Z,38.73
2019-03-29T12:17:59.706Z,38.60
2019-03-29T12:20:28.227Z,39.67
2019-03-29T12:22:56.693Z,38.33
2019-03-29T12:25:26.297Z,39.27
2019-03-29T12:27:54.737Z,38.30
2019-03-29T12:30:31.697Z,38.73
2019-03-29T12:32:53.348Z,40.15
2019-03-29T12:35:21.849Z,40.58
2019-03-29T12:37:50.283Z,38.30
2019-03-29T12:40:18.741Z,39.08
2019-03-29T12:42:47.225Z,41.83
2019-03-29T12:45:15.734Z,41.60
2019-03-29T12:47:44.454Z,40.38
2019-03-29T12:50:13.254Z,40.00
2019-03-29T12:52:41.705Z,41.40
2019-03-29T12:55:10.311Z,41.37
2019-03-29T12:57:39.447Z,40.13
2019-03-29T13:00:08.685Z,41.37
2019-03-29T13:02:37.110Z,39.90
2019-03-29T13:05:06.885Z,40.63
2019-03-29T13:07:35.330Z,39.53
2019-03-29T13:10:06.809Z,39.30
2019-03-29T13:12:35.248Z,40.65
2019-03-29T13:15:04.883Z,40.83
2019-03-29T13:17:33.327Z,40.80
2019-03-29T13:20:01.824Z,39.58
2019-03-29T13:22:30.537Z,41.45
2019-03-29T13:24:58.965Z,43.68
2019-03-29T13:27:27.405Z,41.45
2019-03-29T13:29:57.129Z,40.65
2019-03-29T13:32:26.591Z,40.33
2019-03-29T13:34:55.101Z,42.27
2019-03-29T13:37:23.547Z,41.73
2019-03-29T13:39:52.039Z,42.25
2019-03-29T13:42:20.504Z,42.40
2019-03-29T13:44:48.947Z,41.95
2019-03-29T13:47:18.141Z,41.10
2019-03-29T13:49:46.764Z,42.20
2019-03-29T13:52:16.018Z,40.70
2019-03-29T13:54:44.795Z,41.33
2019-03-29T13:57:13.244Z,41.37
2019-03-29T13:59:41.693Z,43.98
2019-03-29T14:02:10.177Z,41.92
2019-03-29T14:04:38.795Z,42.00
2019-03-29T14:07:07.236Z,41.80
2019-03-29T14:09:36.088Z,39.90
2019-03-29T14:12:04.532Z,40.40
2019-03-29T14:14:38.434Z,41.37
2019-03-29T14:17:03.164Z,42.48
2019-03-29T14:19:51.004Z,41.90
2019-03-29T14:22:19.508Z,40.45
2019-03-29T14:24:47.936Z,40.80
2019-03-29T14:27:16.374Z,41.18
2019-03-29T14:29:44.818Z,39.75
2019-03-29T14:32:13.338Z,38.83
2019-03-29T14:34:41.769Z,38.75
2019-03-29T14:37:10.205Z,40.67
2019-03-29T14:39:38.650Z,39.15
2019-03-29T14:42:07.177Z,39.33
2019-03-29T14:44:35.610Z,40.47
2019-03-29T14:47:04.049Z,39.45
2019-03-29T14:49:32.488Z,36.53
2019-03-29T14:52:00.925Z,37.38
2019-03-29T14:54:29.384Z,37.98
2019-03-29T14:56:57.820Z,37.45
2019-03-29T14:59:26.262Z,37.20
2019-03-29T15:01:54.694Z,38.08
2019-03-29T15:04:23.133Z,37.03
2019-03-29T15:06:51.569Z,37.93
2019-03-29T15:09:20.973Z,37.35
2019-03-29T15:11:49.428Z,38.67
2019-03-29T15:14:17.934Z,38.55
2019-03-29T15:16:46.371Z,41.50
2019-03-29T15:19:14.809Z,37.73
2019-03-29T15:21:43.254Z,37.13
2019-03-29T15:24:11.694Z,37.53
2019-03-29T15:26:40.134Z,35.48
2019-03-29T15:29:08.573Z,36.15
2019-03-29T15:31:37.367Z,37.00
2019-03-29T15:34:05.834Z,36.58
2019-03-29T15:36:34.256Z,36.40
2019-03-29T15:39:02.705Z,36.50
2019-03-29T15:41:31.318Z,37.20
2019-03-29T15:43:59.761Z,36.15
2019-03-29T15:46:28.192Z,36.70
2019-03-29T15:48:56.654Z,36.73
2019-03-29T15:51:25.081Z,37.10
2019-03-29T15:53:53.538Z,35.85
2019-03-29T15:56:21.969Z,35.70
2019-03-29T15:58:50.429Z,36.33
2019-03-29T16:01:19.728Z,36.20
2019-03-29T16:03:48.160Z,36.80
2019-03-29T16:06:16.609Z,37.58
2019-03-29T16:08:45.394Z,35.23
2019-03-29T16:11:17.178Z,35.35
2019-03-29T16:13:44.007Z,35.03
2019-03-29T16:16:12.510Z,34.73
2019-03-29T16:18:40.988Z,33.13
2019-03-29T16:21:09.422Z,35.45
2019-03-29T16:23:37.853Z,35.48
2019-03-29T16:26:06.285Z,35.28
2019-03-29T16:28:34.724Z,35.40
2019-03-29T16:31:03.158Z,34.80
2019-03-29T16:33:31.594Z,35.25
2019-03-29T16:36:00.040Z,34.77
2019-03-29T16:38:28.481Z,35.98
2019-03-29T16:40:57.296Z,34.43
2019-03-29T16:43:25.737Z,34.30
2019-03-29T16:45:54.182Z,35.85
2019-03-29T16:48:22.930Z,35.17
2019-03-29T16:50:51.437Z,34.65
2019-03-29T16:53:19.881Z,35.73
2019-03-29T16:55:48.670Z,35.25
2019-03-29T16:58:17.115Z,35.05
2019-03-29T17:00:45.553Z,34.58
2019-03-29T17:03:14.321Z,35.05
2019-03-29T17:05:42.749Z,34.60
2019-03-29T17:08:11.186Z,35.13
2019-03-29T17:10:39.628Z,37.58
2019-03-29T17:13:08.066Z,35.20
2019-03-29T17:15:36.821Z,34.40
2019-03-29T17:18:05.271Z,35.10
2019-03-29T17:20:33.701Z,35.20
2019-03-29T17:23:02.138Z,36.88
2019-03-29T17:25:30.578Z,35.92
2019-03-29T17:27:59.001Z,36.10
2019-03-29T17:30:40.181Z,36.58
2019-03-29T17:33:08.624Z,35.78
2019-03-29T17:35:37.057Z,35.50
2019-03-29T17:38:05.497Z,35.40
2019-03-29T17:40:34.016Z,37.60
2019-03-29T17:43:02.444Z,38.15
2019-03-29T17:45:30.886Z,37.50
2019-03-29T17:47:59.329Z,37.58
2019-03-29T17:50:27.785Z,37.50
2019-03-29T17:52:56.219Z,39.57
2019-03-29T17:55:24.655Z,36.30
2019-03-29T17:57:53.088Z,36.17
2019-03-29T18:00:23.403Z,37.58
2019-03-29T18:02:51.840Z,38.53
2019-03-29T18:05:20.265Z,38.60
2019-03-29T18:07:48.711Z,38.80
2019-03-29T18:10:17.144Z,38.85
2019-03-29T18:12:45.765Z,37.75
2019-03-29T18:15:15.204Z,38.80
2019-03-29T18:17:43.646Z,39.35
2019-03-29T18:20:12.347Z,40.83
2019-03-29T18:22:41.268Z,40.97
2019-03-29T18:25:09.837Z,41.23
2019-03-29T18:27:38.300Z,40.20
2019-03-29T18:30:08.076Z,39.67
2019-03-29T18:32:36.657Z,40.38
2019-03-29T18:35:09.961Z,40.28
2019-03-29T18:37:38.850Z,40.10
2019-03-29T18:40:09.096Z,41.60
2019-03-29T18:42:37.551Z,41.60
2019-03-29T18:45:08.038Z,42.37
2019-03-29T18:47:36.807Z,41.42
2019-03-29T18:50:06.574Z,41.95
2019-03-29T18:52:35.013Z,41.33
2019-03-29T18:55:04.706Z,38.98
2019-03-29T18:57:33.206Z,38.02
2019-03-29T19:00:01.644Z,38.93
2019-03-29T19:02:30.170Z,39.23
2019-03-29T19:04:58.614Z,41.02
2019-03-29T19:07:30.285Z,41.30
2019-03-29T19:09:59.270Z,39.23
2019-03-29T19:12:27.720Z,38.58
2019-03-29T19:14:56.146Z,38.15
2019-03-29T19:17:24.583Z,38.92
2019-03-29T19:19:53.038Z,38.02
2019-03-29T19:22:21.916Z,39.53
2019-03-29T19:24:50.399Z,38.83
2019-03-29T19:27:18.829Z,40.55
2019-03-29T19:29:47.632Z,39.30
2019-03-29T19:32:16.069Z,41.58
2019-03-29T19:34:44.500Z,40.78
2019-03-29T19:37:12.928Z,41.60
2019-03-29T19:39:41.372Z,42.08
2019-03-29T19:42:09.821Z,41.85
2019-03-29T19:44:38.261Z,43.28
2019-03-29T19:47:13.327Z,42.88
2019-03-29T19:49:37.126Z,43.02
2019-03-29T19:52:05.556Z,44.73
2019-03-29T19:54:34.011Z,43.80
2019-03-29T19:57:02.525Z,46.30
2019-03-29T19:59:32.553Z,45.98
2019-03-29T20:02:01.060Z,46.42
2019-03-29T20:04:29.496Z,46.25
2019-03-29T20:06:57.921Z,47.75
2019-03-29T20:09:26.365Z,48.95
2019-03-29T20:11:54.797Z,47.98
2019-03-29T20:14:23.234Z,46.08
2019-03-29T20:16:55.068Z,48.40
2019-03-29T20:19:22.097Z,47.97
2019-03-29T20:21:50.537Z,50.05
2019-03-29T20:24:18.981Z,48.10
2019-03-29T20:26:47.416Z,50.83
2019-03-29T20:29:15.935Z,50.13
2019-03-29T20:31:44.445Z,48.65
2019-03-29T20:34:12.885Z,48.00
2019-03-29T20:36:41.325Z,49.98
2019-03-29T20:39:09.758Z,49.48
2019-03-29T20:41:38.193Z,49.67
2019-03-29T20:44:06.625Z,50.33
2019-03-29T20:46:35.059Z,50.23
2019-03-29T20:49:03.494Z,52.03
2019-03-29T20:51:31.929Z,54.03
2019-03-29T20:54:00.373Z,52.43
2019-03-29T20:56:29.014Z,52.95
2019-03-29T20:58:57.556Z,53.80
2019-03-29T21:01:25.994Z,54.00
2019-03-29T21:03:54.426Z,54.30
2019-03-29T21:06:22.889Z,56.20
2019-03-29T21:08:51.347Z,54.23
2019-03-29T21:11:20.141Z,55.78
2019-03-29T21:13:48.688Z,56.20
2019-03-29T21:16:17.318Z,57.00
2019-03-29T21:18:45.759Z,57.00
2019-03-29T21:21:14.205Z,55.73
2019-03-29T21:23:42.625Z,56.50
2019-03-29T21:26:11.113Z,57.27
2019-03-29T21:28:39.554Z,56.02
2019-03-29T21:31:08.069Z,57.10
2019-03-29T21:33:36.486Z,56.60
2019-03-29T21:36:04.967Z,55.73
2019-03-29T21:38:33.452Z,56.77
2019-03-29T21:41:01.897Z,56.65
2019-03-29T21:43:30.349Z,56.88
2019-03-29T21:45:58.793Z,58.75
2019-03-29T21:48:29.041Z,56.48
2019-03-29T21:50:57.451Z,58.98
2019-03-29T21:53:26.265Z,57.45
2019-03-29T21:55:54.684Z,56.48
2019-03-29T21:58:23.125Z,57.38
2019-03-29T22:00:51.590Z,56.33
2019-03-29T22:03:20.396Z,56.18
2019-03-29T22:05:48.840Z,56.25
2019-03-29T22:08:18.056Z,56.63
2019-03-29T22:10:46.787Z,58.65
2019-03-29T22:13:15.240Z,58.50
2019-03-29T22:15:43.701Z,57.48
2019-03-29T22:18:12.143Z,59.48
2019-03-29T22:20:40.611Z,59.03
2019-03-29T22:23:09.101Z,59.27
2019-03-29T22:25:37.523Z,57.53
2019-03-29T22:28:05.994Z,60.03
2019-03-29T22:30:34.438Z,60.60
2019-03-29T22:33:04.061Z,62.27
2019-03-29T22:35:32.725Z,59.63
2019-03-29T22:38:01.182Z,60.10
2019-03-29T22:40:29.608Z,63.38
2019-03-29T22:42:58.057Z,60.80
2019-03-29T22:45:26.504Z,63.60
2019-03-29T22:47:54.951Z,61.05
2019-03-29T22:50:23.380Z,60.90
2019-03-29T22:52:54.447Z,62.25
2019-03-29T22:55:22.350Z,62.20
2019-03-29T22:57:50.826Z,60.28
2019-03-29T23:00:22.343Z,59.88
2019-03-29T23:02:50.789Z,61.80
2019-03-29T23:05:19.222Z,62.60
2019-03-29T23:07:47.733Z,61.68
2019-03-29T23:10:16.246Z,60.15
2019-03-29T23:12:44.692Z,64.40
2019-03-29T23:15:13.345Z,65.05
2019-03-29T23:17:41.779Z,63.75
2019-03-29T23:20:10.573Z,66.07
2019-03-29T23:22:39.001Z,61.98
2019-03-29T23:25:07.508Z,62.60
2019-03-29T23:27:36.197Z,64.45
2019-03-29T23:30:06.574Z,68.42
2019-03-29T23:32:35.014Z,67.37
2019-03-29T23:35:04.330Z,66.30
2019-03-29T23:37:32.769Z,66.57
2019-03-29T23:40:01.228Z,63.92
2019-03-29T23:42:29.749Z,63.33
2019-03-29T23:44:58.180Z,68.45
2019-03-29T23:47:26.654Z,69.65
2019-03-29T23:49:55.130Z,66.53
2019-03-29T23:52:23.610Z,67.27
2019-03-29T23:54:52.044Z,67.75
2019-03-29T23:57:20.483Z,67.72
2019-03-29T23:59:48.997Z,70.57
